Time;durP1;ratioP1;P1;durP2;ratioP2;P2;SDS_P1;SDS_P2;PMS_P1;PMS_P2;Temp;Humidity;BMP_temperature;BMP_pressure;BME280_temperature;BME280_humidity;BME280_pressure;Samples;Min_cycle;Max_cycle;Signal;HPM_P1;HPM_P2
2023/01/09 00:00:31;;;;;;;1.53;1.00;;;;;;;;;;5049368;28;20062;-62
2023/01/09 00:02:58;;;;;;;1.70;1.10;;;;;;;;;;5045993;28;20021;-62
2023/01/09 00:05:25;;;;;;;1.70;1.27;;;;;;;;;;5030685;28;20036;-63
2023/01/09 00:07:51;;;;;;;3.97;1.20;;;;;;;;;;5036626;28;20369;-62
2023/01/09 00:10:18;;;;;;;2.50;1.67;;;;;;;;;;5034190;28;20076;-62
2023/01/09 00:12:45;;;;;;;1.73;1.13;;;;;;;;;;5034412;28;20122;-62
2023/01/09 00:15:12;;;;;;;5.70;1.57;;;;;;;;;;5040814;28;20029;-62
2023/01/09 00:17:39;;;;;;;1.57;1.07;;;;;;;;;;5051509;28;20032;-62
2023/01/09 00:20:06;;;;;;;1.00;0.83;;;;;;;;;;5047043;28;20112;-62
2023/01/09 00:22:33;;;;;;;1.10;0.83;;;;;;;;;;5048515;28;20047;-63
2023/01/09 00:24:59;;;;;;;4.27;1.30;;;;;;;;;;5036145;28;20183;-62
2023/01/09 00:27:26;;;;;;;2.90;2.10;;;;;;;;;;5029853;28;20026;-62
2023/01/09 00:29:53;;;;;;;4.17;2.33;;;;;;;;;;5040329;28;20029;-62
2023/01/09 00:32:20;;;;;;;4.27;2.00;;;;;;;;;;5044109;28;20069;-62
2023/01/09 00:34:47;;;;;;;2.60;1.53;;;;;;;;;;5036054;28;20529;-63
2023/01/09 00:37:14;;;;;;;1.47;1.10;;;;;;;;;;5052459;28;20349;-62
2023/01/09 00:39:41;;;;;;;4.70;2.33;;;;;;;;;;5044893;28;20041;-62
2023/01/09 00:42:10;;;;;;;2.53;1.57;;;;;;;;;;5049720;28;20013;-62
2023/01/09 00:44:43;;;;;;;9.13;2.00;;;;;;;;;;5034119;28;20112;-62
2023/01/09 00:47:18;;;;;;;1.40;1.13;;;;;;;;;;5039935;28;20025;-63
2023/01/09 00:49:44;;;;;;;;;;;;;;;;;;5036819;28;20021;-62
2023/01/09 00:52:12;;;;;;;7.57;2.97;;;;;;;;;;5042279;28;20401;-62
2023/01/09 00:54:40;;;;;;;5.07;2.67;;;;;;;;;;5036214;28;20095;-62
2023/01/09 00:57:07;;;;;;;5.97;2.60;;;;;;;;;;5038947;28;20028;-62
2023/01/09 00:59:34;;;;;;;3.97;1.77;;;;;;;;;;5050578;28;20487;-62
2023/01/09 01:02:00;;;;;;;3.30;1.90;;;;;;;;;;5051472;28;20021;-62
2023/01/09 01:09:57;;;;;;;3.20;1.50;;;;;;;;;;5048368;28;19919;-62
2023/01/09 01:12:24;;;;;;;4.57;2.33;;;;;;;;;;5046643;28;20028;-62
2023/01/09 01:14:52;;;;;;;10.23;3.27;;;;;;;;;;5053286;28;20419;-62
2023/01/09 01:17:18;;;;;;;10.13;3.23;;;;;;;;;;5052940;28;20108;-62
2023/01/09 01:19:45;;;;;;;3.57;2.30;;;;;;;;;;5052394;28;20488;-62
2023/01/09 01:22:12;;;;;;;12.33;4.03;;;;;;;;;;5052397;28;20041;-62
2023/01/09 01:24:39;;;;;;;1.83;1.30;;;;;;;;;;5050818;28;20036;-63
2023/01/09 01:27:05;;;;;;;6.97;3.07;;;;;;;;;;5047839;28;20033;-62
2023/01/09 01:29:32;;;;;;;5.37;2.17;;;;;;;;;;5047799;28;20067;-62
2023/01/09 01:31:59;;;;;;;3.57;1.80;;;;;;;;;;5040908;28;20044;-63
2023/01/09 01:34:25;;;;;;;5.23;2.10;;;;;;;;;;5030112;28;20025;-63
2023/01/09 01:36:52;;;;;;;15.87;3.20;;;;;;;;;;5048229;28;20029;-63
2023/01/09 01:39:19;;;;;;;6.67;3.27;;;;;;;;;;5050628;28;20052;-63
2023/01/09 01:41:46;;;;;;;5.00;2.60;;;;;;;;;;5033564;28;20033;-62
2023/01/09 01:44:30;;;;;;;4.83;2.50;;;;;;;;;;5044148;28;20056;-63
2023/01/09 01:46:57;;;;;;;4.75;2.75;;;;;;;;;;5049050;28;20027;-63
2023/01/09 01:49:24;;;;;;;5.03;2.90;;;;;;;;;;5039803;28;20022;-62
2023/01/09 01:51:52;;;;;;;6.13;1.93;;;;;;;;;;5031095;28;20025;-62
2023/01/09 01:54:23;;;;;;;8.53;1.87;;;;;;;;;;5027893;28;20030;-62
2023/01/09 01:56:52;;;;;;;2.50;1.63;;;;;;;;;;5045523;28;20029;-62
2023/01/09 01:59:49;;;;;;;2.00;1.33;;;;;;;;;;5052410;28;20078;-62
2023/01/09 02:02:20;;;;;;;4.63;2.40;;;;;;;;;;5041701;28;20037;-63
2023/01/09 02:04:47;;;;;;;6.37;2.43;;;;;;;;;;5039721;28;20021;-62
2023/01/09 02:07:14;;;;;;;4.13;2.43;;;;;;;;;;5034045;28;20112;-62
2023/01/09 02:09:43;;;;;;;5.00;2.40;;;;;;;;;;5049163;28;20031;-62
2023/01/09 02:12:23;;;;;;;4.67;2.33;;;;;;;;;;5042883;28;20029;-62
2023/01/09 02:14:53;;;;;;;2.17;1.67;;;;;;;;;;5028532;28;20074;-62
2023/01/09 02:17:20;;;;;;;1.23;1.00;;;;;;;;;;5027461;28;20045;-63
2023/01/09 02:19:56;;;;;;;7.83;1.73;;;;;;;;;;5030304;28;20025;-62
2023/01/09 02:22:35;;;;;;;7.10;2.73;;;;;;;;;;5031859;28;20499;-62
2023/01/09 02:25:13;;;;;;;2.67;1.90;;;;;;;;;;5032423;28;20431;-62
2023/01/09 02:27:49;;;;;;;2.50;1.60;;;;;;;;;;5042843;28;20411;-62
2023/01/09 02:30:34;;;;;;;11.97;1.97;;;;;;;;;;5037692;28;20029;-62
2023/01/09 02:33:01;;;;;;;;;;;;;;;;;;5035885;28;20025;-62
2023/01/09 02:35:46;;;;;;;4.23;2.03;;;;;;;;;;5047365;28;19905;-62
2023/01/09 02:38:32;;;;;;;17.05;1.98;;;;;;;;;;5029302;28;20079;-62
2023/01/09 02:41:06;;;;;;;6.40;2.87;;;;;;;;;;5036390;28;20697;-65
2023/01/09 02:43:33;;;;;;;3.33;2.50;;;;;;;;;;5049568;28;20112;-62
2023/01/09 02:45:59;;;;;;;5.27;2.53;;;;;;;;;;5043353;28;20367;-62
2023/01/09 02:48:26;;;;;;;2.63;1.80;;;;;;;;;;5041123;28;20385;-62
2023/01/09 02:51:01;;;;;;;1.73;1.43;;;;;;;;;;5053426;28;20033;-62
2023/01/09 02:53:43;;;;;;;6.00;2.13;;;;;;;;;;5049199;28;20029;-62
2023/01/09 02:56:09;;;;;;;4.60;2.10;;;;;;;;;;5032308;28;20025;-62
2023/01/09 02:58:54;;;;;;;5.70;2.73;;;;;;;;;;5032097;28;20116;-62
2023/01/09 03:01:25;;;;;;;1.83;1.35;;;;;;;;;;5031686;28;20040;-63
2023/01/09 03:04:24;;;;;;;2.17;1.50;;;;;;;;;;5051062;28;20032;-62
2023/01/09 03:06:58;;;;;;;5.93;2.83;;;;;;;;;;5038955;28;20042;-62
2023/01/09 03:09:26;;;;;;;2.80;1.40;;;;;;;;;;5035815;28;20075;-62
2023/01/09 03:11:57;;;;;;;6.50;2.27;;;;;;;;;;5035464;28;20025;-62
2023/01/09 03:14:25;;;;;;;4.90;2.00;;;;;;;;;;5035811;28;20030;-62
2023/01/09 03:16:55;;;;;;;5.63;3.07;;;;;;;;;;5048795;28;20032;-62
2023/01/09 03:19:24;;;;;;;4.57;2.27;;;;;;;;;;5045096;28;20029;-62
2023/01/09 03:21:51;;;;;;;1.87;1.43;;;;;;;;;;5044931;28;20036;-62
2023/01/09 03:24:18;;;;;;;2.30;2.00;;;;;;;;;;5070519;28;20020;-62
2023/01/09 03:26:45;;;;;;;3.73;2.43;;;;;;;;;;5045211;28;20063;-62
2023/01/09 03:29:11;;;;;;;5.43;2.93;;;;;;;;;;5041697;28;20045;-62
2023/01/09 03:31:38;;;;;;;3.33;1.67;;;;;;;;;;5057950;28;20217;-62
2023/01/09 03:34:05;;;;;;;1.47;1.07;;;;;;;;;;5075201;28;20025;-62
2023/01/09 03:36:31;;;;;;;4.30;2.37;;;;;;;;;;5046725;28;20017;-62
2023/01/09 03:38:58;;;;;;;3.70;2.00;;;;;;;;;;5037364;28;20030;-62
2023/01/09 03:41:25;;;;;;;8.40;2.13;;;;;;;;;;5050834;28;20033;-62
2023/01/09 03:43:51;;;;;;;11.00;2.67;;;;;;;;;;5052834;28;20103;-62
2023/01/09 03:46:18;;;;;;;10.97;2.63;;;;;;;;;;5042136;28;20029;-62
2023/01/09 03:48:45;;;;;;;4.77;2.07;;;;;;;;;;5041571;28;20041;-62
2023/01/09 03:51:12;;;;;;;11.13;2.50;;;;;;;;;;5038104;28;20103;-62
2023/01/09 03:53:38;;;;;;;6.77;3.53;;;;;;;;;;5036694;28;20024;-62
2023/01/09 03:56:05;;;;;;;6.33;2.77;;;;;;;;;;5044222;28;20502;-62
2023/01/09 03:58:32;;;;;;;2.43;1.73;;;;;;;;;;5034653;28;20018;-62
2023/01/09 04:00:59;;;;;;;6.47;2.53;;;;;;;;;;5032066;28;20036;-63
2023/01/09 04:03:26;;;;;;;20.80;1.90;;;;;;;;;;5035212;28;20037;-62
2023/01/09 04:05:53;;;;;;;3.40;2.37;;;;;;;;;;5038591;28;20061;-61
2023/01/09 04:08:20;;;;;;;4.23;1.30;;;;;;;;;;5039824;28;20026;-62
2023/01/09 04:10:48;;;;;;;3.63;2.37;;;;;;;;;;5035605;28;20047;-62
2023/01/09 04:13:14;;;;;;;6.73;2.43;;;;;;;;;;5052752;28;20137;-62
2023/01/09 04:15:41;;;;;;;4.80;2.67;;;;;;;;;;5046175;28;20082;-62
2023/01/09 04:18:08;;;;;;;3.50;2.43;;;;;;;;;;5051341;28;20025;-62
2023/01/09 04:20:35;;;;;;;2.47;1.70;;;;;;;;;;5041832;28;20113;-62
2023/01/09 04:23:02;;;;;;;4.73;3.27;;;;;;;;;;5033678;28;20025;-62
2023/01/09 04:25:28;;;;;;;3.13;2.43;;;;;;;;;;5038838;28;20736;-62
2023/01/09 04:27:55;;;;;;;4.33;2.63;;;;;;;;;;5055722;28;20096;-62
2023/01/09 04:30:22;;;;;;;3.17;1.70;;;;;;;;;;5030903;28;20033;-62
2023/01/09 04:32:48;;;;;;;2.80;1.77;;;;;;;;;;5041540;28;20082;-61
2023/01/09 04:35:15;;;;;;;1.33;1.00;;;;;;;;;;5054258;28;20060;-61
2023/01/09 04:37:41;;;;;;;3.37;2.30;;;;;;;;;;5053935;28;20031;-62
2023/01/09 04:40:12;;;;;;;3.77;2.23;;;;;;;;;;5053507;28;20025;-62
2023/01/09 04:42:39;;;;;;;3.90;1.77;;;;;;;;;;5044574;28;20109;-62
2023/01/09 04:45:07;;;;;;;6.20;2.57;;;;;;;;;;5050914;28;20089;-62
2023/01/09 04:47:33;;;;;;;3.17;2.23;;;;;;;;;;5048846;28;20029;-62
2023/01/09 04:50:00;;;;;;;3.07;1.97;;;;;;;;;;5039979;28;20052;-62
2023/01/09 04:52:27;;;;;;;6.27;2.37;;;;;;;;;;5038576;28;20025;-63
2023/01/09 04:54:54;;;;;;;1.57;1.07;;;;;;;;;;5040075;28;20032;-62
2023/01/09 04:57:21;;;;;;;5.23;2.23;;;;;;;;;;5036359;28;20033;-62
2023/01/09 04:59:48;;;;;;;1.70;1.20;;;;;;;;;;5041441;28;20052;-62
2023/01/09 05:02:15;;;;;;;2.40;1.73;;;;;;;;;;5048966;28;20356;-62
2023/01/09 05:04:41;;;;;;;4.93;2.37;;;;;;;;;;5043210;28;20035;-61
2023/01/09 05:07:08;;;;;;;2.37;1.33;;;;;;;;;;5039779;28;20049;-61
2023/01/09 05:09:35;;;;;;;2.80;1.57;;;;;;;;;;5029750;28;20024;-61
2023/01/09 05:12:02;;;;;;;1.50;1.20;;;;;;;;;;5029312;28;20491;-62
2023/01/09 05:14:29;;;;;;;8.33;2.20;;;;;;;;;;5033420;28;20025;-61
2023/01/09 05:16:55;;;;;;;1.70;1.33;;;;;;;;;;5038593;28;20027;-61
2023/01/09 05:19:23;;;;;;;1.33;1.13;;;;;;;;;;5044797;28;20028;-61
2023/01/09 05:21:49;;;;;;;3.60;2.03;;;;;;;;;;5038797;28;20443;-61
2023/01/09 05:24:16;;;;;;;1.73;1.47;;;;;;;;;;5039452;28;20025;-61
2023/01/09 05:26:43;;;;;;;3.50;1.53;;;;;;;;;;5039607;28;20079;-61
2023/01/09 05:29:10;;;;;;;6.00;2.00;;;;;;;;;;5033778;28;20100;-61
2023/01/09 05:31:36;;;;;;;3.03;1.50;;;;;;;;;;5033802;28;20472;-61
2023/01/09 05:34:03;;;;;;;2.87;1.93;;;;;;;;;;5046713;28;20479;-62
2023/01/09 05:36:30;;;;;;;2.77;1.93;;;;;;;;;;5029184;28;20392;-61
2023/01/09 05:38:57;;;;;;;3.73;2.13;;;;;;;;;;5028068;28;20095;-61
2023/01/09 05:41:25;;;;;;;5.70;1.63;;;;;;;;;;5032906;28;20423;-61
2023/01/09 05:43:52;;;;;;;1.47;1.00;;;;;;;;;;5043359;28;20388;-61
2023/01/09 05:46:18;;;;;;;5.17;2.17;;;;;;;;;;5034725;28;20055;-61
2023/01/09 05:48:45;;;;;;;2.13;1.57;;;;;;;;;;5032552;28;20375;-61
2023/01/09 05:51:12;;;;;;;1.10;1.00;;;;;;;;;;5032329;28;20032;-61
2023/01/09 05:53:39;;;;;;;2.40;1.83;;;;;;;;;;5027565;28;20646;-61
2023/01/09 05:56:06;;;;;;;8.90;1.43;;;;;;;;;;5041546;28;20056;-60
2023/01/09 05:58:32;;;;;;;3.17;2.03;;;;;;;;;;5047435;28;20017;-61
2023/01/09 06:00:59;;;;;;;2.30;1.83;;;;;;;;;;5041783;28;20483;-60
2023/01/09 06:03:26;;;;;;;4.90;2.03;;;;;;;;;;5044824;28;20537;-61
2023/01/09 06:05:52;;;;;;;2.27;1.40;;;;;;;;;;5052352;28;20029;-60
2023/01/09 06:08:19;;;;;;;1.80;1.10;;;;;;;;;;5052191;28;20104;-60
2023/01/09 06:10:46;;;;;;;4.47;1.33;;;;;;;;;;5052315;28;20037;-60
2023/01/09 06:13:13;;;;;;;1.93;1.17;;;;;;;;;;5041618;28;20026;-60
2023/01/09 06:15:40;;;;;;;1.13;1.00;;;;;;;;;;5027212;28;20049;-60
2023/01/09 06:18:07;;;;;;;4.20;2.13;;;;;;;;;;5027287;28;20041;-60
2023/01/09 06:20:34;;;;;;;5.10;1.23;;;;;;;;;;5026807;28;20037;-60
2023/01/09 06:23:00;;;;;;;1.03;0.83;;;;;;;;;;5034633;28;20059;-61
2023/01/09 06:25:27;;;;;;;1.80;1.30;;;;;;;;;;5050429;28;20029;-60
2023/01/09 06:27:54;;;;;;;1.20;1.10;;;;;;;;;;5052246;28;20261;-60
2023/01/09 06:30:20;;;;;;;1.23;1.00;;;;;;;;;;5052122;28;20025;-60
2023/01/09 06:32:48;;;;;;;3.77;2.00;;;;;;;;;;5045777;28;20021;-60
2023/01/09 06:35:19;;;;;;;2.80;1.57;;;;;;;;;;5032350;28;20099;-60
2023/01/09 06:37:46;;;;;;;2.53;1.80;;;;;;;;;;5027220;28;20423;-61
2023/01/09 06:40:13;;;;;;;4.40;1.77;;;;;;;;;;5026492;28;20034;-60
2023/01/09 06:42:43;;;;;;;3.43;1.87;;;;;;;;;;5031962;28;20422;-60
2023/01/09 06:45:10;;;;;;;2.90;1.73;;;;;;;;;;5046695;28;20116;-60
2023/01/09 06:47:36;;;;;;;8.63;1.07;;;;;;;;;;5050908;28;20025;-60
2023/01/09 06:50:03;;;;;;;6.30;1.67;;;;;;;;;;5051962;28;20032;-60
2023/01/09 06:52:30;;;;;;;1.40;1.10;;;;;;;;;;5048297;28;20092;-60
2023/01/09 06:54:56;;;;;;;1.33;1.03;;;;;;;;;;5031517;28;20255;-60
2023/01/09 06:57:23;;;;;;;2.17;1.50;;;;;;;;;;5031648;28;20632;-60
2023/01/09 06:59:49;;;;;;;1.83;1.43;;;;;;;;;;5027698;28;20413;-60
2023/01/09 07:02:19;;;;;;;2.90;1.00;;;;;;;;;;5027875;28;20052;-60
2023/01/09 07:04:46;;;;;;;2.93;2.30;;;;;;;;;;5046790;28;20621;-60
2023/01/09 07:07:13;;;;;;;1.83;1.33;;;;;;;;;;5046822;28;20309;-60
2023/01/09 07:09:40;;;;;;;3.30;1.77;;;;;;;;;;5050269;28;20262;-60
2023/01/09 07:12:06;;;;;;;2.07;1.60;;;;;;;;;;5050841;28;20357;-62
2023/01/09 07:14:33;;;;;;;2.67;1.93;;;;;;;;;;5031879;28;20321;-60
2023/01/09 07:17:00;;;;;;;2.17;1.03;;;;;;;;;;5031827;28;20258;-60
2023/01/09 07:19:26;;;;;;;2.20;1.20;;;;;;;;;;5031914;28;20270;-60
2023/01/09 07:21:53;;;;;;;1.40;1.23;;;;;;;;;;5027838;28;20259;-60
2023/01/09 07:24:20;;;;;;;4.10;1.53;;;;;;;;;;5044017;28;20313;-60
2023/01/09 07:26:46;;;;;;;3.67;2.23;;;;;;;;;;5046443;28;20270;-60
2023/01/09 07:29:13;;;;;;;2.53;1.80;;;;;;;;;;5046185;28;20269;-60
2023/01/09 07:31:40;;;;;;;1.63;1.33;;;;;;;;;;5049466;28;20259;-60
2023/01/09 07:34:06;;;;;;;2.20;1.47;;;;;;;;;;5035665;28;20271;-60
2023/01/09 07:36:33;;;;;;;2.27;1.70;;;;;;;;;;5034504;28;20254;-60
2023/01/09 07:39:00;;;;;;;2.30;1.63;;;;;;;;;;5035114;28;20765;-60
2023/01/09 07:41:26;;;;;;;2.80;1.93;;;;;;;;;;5034961;28;20784;-60
2023/01/09 07:43:53;;;;;;;1.77;1.30;;;;;;;;;;5044878;28;20825;-60
2023/01/09 07:46:19;;;;;;;2.03;0.90;;;;;;;;;;5043486;28;20749;-60
2023/01/09 07:48:46;;;;;;;3.03;1.23;;;;;;;;;;5029843;28;20753;-59
2023/01/09 07:51:13;;;;;;;1.23;1.03;;;;;;;;;;5029871;28;20609;-60
2023/01/09 07:53:40;;;;;;;2.10;1.27;;;;;;;;;;5051599;28;20266;-60
2023/01/09 07:56:07;;;;;;;4.97;2.20;;;;;;;;;;5054681;28;20341;-60
2023/01/09 07:58:33;;;;;;;3.70;2.10;;;;;;;;;;5054703;28;20345;-60
2023/01/09 08:01:00;;;;;;;3.80;2.30;;;;;;;;;;5054155;28;20278;-60
2023/01/09 08:03:27;;;;;;;3.20;2.20;;;;;;;;;;5037474;28;20263;-60
2023/01/09 08:05:53;;;;;;;2.53;1.57;;;;;;;;;;5031732;28;20358;-60
2023/01/09 08:08:21;;;;;;;1.53;1.33;;;;;;;;;;5042158;28;20306;-60
2023/01/09 08:10:48;;;;;;;1.47;1.27;;;;;;;;;;5049271;28;20745;-60
2023/01/09 08:13:14;;;;;;;1.83;1.23;;;;;;;;;;5034211;28;20757;-60
2023/01/09 08:15:41;;;;;;;0.93;0.83;;;;;;;;;;5031597;28;20388;-60
2023/01/09 08:18:08;;;;;;;2.33;1.77;;;;;;;;;;5034379;28;20258;-60
2023/01/09 08:20:34;;;;;;;4.70;2.07;;;;;;;;;;5039514;28;20387;-60
2023/01/09 08:23:01;;;;;;;2.17;1.90;;;;;;;;;;5034506;28;20767;-60
2023/01/09 08:25:28;;;;;;;2.40;1.87;;;;;;;;;;5034202;28;20277;-60
2023/01/09 08:27:54;;;;;;;4.73;2.30;;;;;;;;;;5031580;28;20263;-60
2023/01/09 08:30:21;;;;;;;3.03;2.17;;;;;;;;;;5035496;28;20387;-60
2023/01/09 08:32:49;;;;;;;3.23;2.30;;;;;;;;;;5048597;28;20258;-60
2023/01/09 08:35:16;;;;;;;2.00;1.67;;;;;;;;;;5049022;28;20250;-60
2023/01/09 08:37:46;;;;;;;2.97;2.10;;;;;;;;;;5050716;28;20258;-60
2023/01/09 08:40:13;;;;;;;2.87;1.80;;;;;;;;;;5047398;28;20401;-60
2023/01/09 08:48:11;;;;;;;1.98;1.52;;;;;;;;;;5033791;28;20048;-60
2023/01/09 08:50:37;;;;;;;1.83;1.50;;;;;;;;;;5038573;28;20087;-60
2023/01/09 08:53:04;;;;;;;4.83;2.77;;;;;;;;;;5048652;28;20254;-60
2023/01/09 08:55:30;;;;;;;2.57;1.83;;;;;;;;;;5046445;28;20274;-60
2023/01/09 08:57:57;;;;;;;1.60;1.50;;;;;;;;;;5048463;28;20262;-60
2023/01/09 09:00:24;;;;;;;1.63;1.30;;;;;;;;;;5051172;28;20719;-60
2023/01/09 09:02:58;;;;;;;5.00;2.73;;;;;;;;;;5053594;28;20254;-60
2023/01/09 09:05:25;;;;;;;3.20;2.50;;;;;;;;;;5050588;28;20277;-60
2023/01/09 09:07:55;;;;;;;2.73;2.20;;;;;;;;;;5033519;28;20269;-59
2023/01/09 09:10:23;;;;;;;3.17;1.83;;;;;;;;;;5032739;28;20278;-60
2023/01/09 09:12:51;;;;;;;8.53;2.13;;;;;;;;;;5029921;28;20263;-60
2023/01/09 09:15:25;;;;;;;1.77;1.63;;;;;;;;;;5029174;28;20255;-60
2023/01/09 09:17:59;;;;;;;2.63;1.97;;;;;;;;;;5028197;28;20269;-60
2023/01/09 09:20:27;;;;;;;3.70;2.30;;;;;;;;;;5028085;28;20776;-60
2023/01/09 09:22:54;;;;;;;1.73;1.40;;;;;;;;;;5031323;28;20721;-60
2023/01/09 09:25:21;;;;;;;4.50;2.77;;;;;;;;;;5034159;28;20282;-60
2023/01/09 09:27:48;;;;;;;3.70;1.60;;;;;;;;;;5032989;28;20265;-60
2023/01/09 09:30:16;;;;;;;3.40;2.10;;;;;;;;;;5033152;28;20745;-60
2023/01/09 09:32:43;;;;;;;1.67;1.57;;;;;;;;;;5031901;28;20328;-60
2023/01/09 09:35:10;;;;;;;2.40;1.63;;;;;;;;;;5044164;28;20262;-60
2023/01/09 09:37:37;;;;;;;2.40;1.90;;;;;;;;;;5047427;28;20476;-60
2023/01/09 09:40:04;;;;;;;2.60;1.90;;;;;;;;;;5045311;28;20734;-60
2023/01/09 09:45:26;;;;;;;3.07;2.17;;;;;;;;;;5031348;28;20270;-59
2023/01/09 09:47:58;;;;;;;3.23;1.83;;;;;;;;;;5032544;28;20345;-60
2023/01/09 09:50:44;;;;;;;3.17;2.03;;;;;;;;;;5036920;28;20269;-60
2023/01/09 09:53:16;;;;;;;5.88;2.33;;;;;;;;;;5052490;28;20261;-60
2023/01/09 09:55:44;;;;;;;3.67;2.57;;;;;;;;;;5052253;28;20056;-60
2023/01/09 09:58:30;;;;;;;1.50;1.30;;;;;;;;;;5046508;28;20343;-60
2023/01/09 10:00:58;;;;;;;1.83;1.57;;;;;;;;;;5037546;28;20325;-60
2023/01/09 10:03:32;;;;;;;4.20;2.43;;;;;;;;;;5027269;28;20265;-60
2023/01/09 10:06:00;;;;;;;4.53;2.97;;;;;;;;;;5027897;28;20291;-60
2023/01/09 10:08:47;;;;;;;3.93;2.47;;;;;;;;;;5032521;28;20259;-60
2023/01/09 10:11:20;;;;;;;1.03;0.90;;;;;;;;;;5031368;28;20289;-60
2023/01/09 10:14:05;;;;;;;0.97;0.80;;;;;;;;;;5032443;28;20864;-60
2023/01/09 10:16:42;;;;;;;5.07;2.15;;;;;;;;;;5032579;28;20266;-60
2023/01/09 10:19:27;;;;;;;2.40;1.80;;;;;;;;;;5029253;28;20064;-60
2023/01/09 10:22:03;;;;;;;2.08;1.52;;;;;;;;;;5042861;28;20289;-60
2023/01/09 10:24:48;;;;;;;1.30;1.17;;;;;;;;;;5047059;28;20694;-60
2023/01/09 10:27:28;;;;;;;3.47;1.85;;;;;;;;;;5047062;28;20266;-60
2023/01/09 10:30:15;;;;;;;2.57;1.83;;;;;;;;;;5050799;28;20017;-61
2023/01/09 10:32:49;;;;;;;1.60;1.30;;;;;;;;;;5030935;28;20251;-60
2023/01/09 10:35:22;;;;;;;1.23;1.13;;;;;;;;;;5032137;28;20342;-60
2023/01/09 10:37:52;;;;;;;2.57;1.70;;;;;;;;;;5031678;28;20255;-60
2023/01/09 10:40:18;;;;;;;3.67;2.20;;;;;;;;;;5031467;28;20305;-60
2023/01/09 10:42:57;;;;;;;2.37;1.87;;;;;;;;;;5026979;28;20385;-59
2023/01/09 10:45:33;;;;;;;2.67;1.43;;;;;;;;;;5026944;28;20321;-60
2023/01/09 10:48:21;;;;;;;1.90;1.60;;;;;;;;;;5026811;28;20269;-61
2023/01/09 10:50:50;;;;;;;4.23;2.13;;;;;;;;;;5034472;28;20269;-60
2023/01/09 10:53:20;;;;;;;3.53;2.30;;;;;;;;;;5051913;28;20759;-60
2023/01/09 10:55:48;;;;;;;1.83;1.57;;;;;;;;;;5052053;28;20345;-60
2023/01/09 10:58:18;;;;;;;1.67;1.33;;;;;;;;;;5051667;28;20250;-60
2023/01/09 11:00:46;;;;;;;3.30;2.00;;;;;;;;;;5045995;28;20282;-60
2023/01/09 11:03:13;;;;;;;1.40;1.17;;;;;;;;;;5029444;28;20266;-60
2023/01/09 11:05:40;;;;;;;2.13;1.50;;;;;;;;;;5026721;28;20780;-60
2023/01/09 11:08:13;;;;;;;2.77;1.90;;;;;;;;;;5026804;28;20286;-60
2023/01/09 11:10:50;;;;;;;1.60;1.23;;;;;;;;;;5034058;28;20254;-60
2023/01/09 11:13:33;;;;;;;2.97;2.10;;;;;;;;;;5052831;28;20276;-59
2023/01/09 11:16:01;;;;;;;3.90;2.40;;;;;;;;;;5055570;28;20292;-60
2023/01/09 11:18:28;;;;;;;3.03;2.20;;;;;;;;;;5055550;28;20243;-60
2023/01/09 11:20:54;;;;;;;2.33;2.03;;;;;;;;;;5048731;28;20377;-60
2023/01/09 11:23:28;;;;;;;2.03;1.60;;;;;;;;;;5035106;28;20254;-60
2023/01/09 11:25:57;;;;;;;1.00;0.90;;;;;;;;;;5032031;28;20654;-60
2023/01/09 11:28:24;;;;;;;1.27;1.03;;;;;;;;;;5030177;28;20294;-60
2023/01/09 11:31:09;;;;;;;1.90;1.33;;;;;;;;;;5035326;28;20806;-60
2023/01/09 11:33:42;;;;;;;1.45;1.27;;;;;;;;;;5049844;28;20317;-59
2023/01/09 11:36:15;;;;;;;1.97;1.40;;;;;;;;;;5053600;28;20036;-60
2023/01/09 11:38:47;;;;;;;1.80;1.63;;;;;;;;;;5055164;28;20266;-60
2023/01/09 11:41:24;;;;;;;3.93;2.13;;;;;;;;;;5037114;28;20297;-60
2023/01/09 11:43:52;;;;;;;3.77;2.53;;;;;;;;;;5034759;28;20266;-59
2023/01/09 11:46:38;;;;;;;1.23;1.10;;;;;;;;;;5035052;28;20358;-60
2023/01/09 11:49:18;;;;;;;1.30;1.10;;;;;;;;;;5029821;28;20290;-60
2023/01/09 11:51:45;;;;;;;2.00;1.63;;;;;;;;;;5029436;28;20258;-59
2023/01/09 11:54:12;;;;;;;2.57;2.10;;;;;;;;;;5029726;28;20334;-59
2023/01/09 11:56:38;;;;;;;3.70;2.07;;;;;;;;;;5029669;28;20259;-60
2023/01/09 11:59:15;;;;;;;1.80;1.63;;;;;;;;;;5034830;28;20285;-60
2023/01/09 12:02:00;;;;;;;3.00;2.00;;;;;;;;;;5034453;28;20832;-59
2023/01/09 12:04:31;;;;;;;3.15;2.83;;;;;;;;;;5034840;28;20246;-59
2023/01/09 12:07:07;;;;;;;2.17;1.90;;;;;;;;;;5043081;28;20036;-59
2023/01/09 12:09:51;;;;;;;1.73;1.63;;;;;;;;;;5052718;28;20733;-60
2023/01/09 12:12:17;;;;;;;2.47;2.13;;;;;;;;;;5049142;28;20270;-60
2023/01/09 12:14:53;;;;;;;6.07;2.77;;;;;;;;;;5049162;28;20250;-59
2023/01/09 12:17:26;;;;;;;1.43;1.33;;;;;;;;;;5038430;28;20793;-60
2023/01/09 12:19:58;;;;;;;3.03;2.63;;;;;;;;;;5031586;28;20279;-59
2023/01/09 12:22:30;;;;;;;2.57;1.77;;;;;;;;;;5033231;28;20258;-60
2023/01/09 12:25:05;;;;;;;1.87;1.60;;;;;;;;;;5034377;28;20255;-60
2023/01/09 12:27:35;;;;;;;5.18;1.55;;;;;;;;;;5046006;28;20760;-60
2023/01/09 12:30:05;;;;;;;2.23;1.77;;;;;;;;;;5054217;28;20025;-59
2023/01/09 12:32:39;;;;;;;6.53;2.73;;;;;;;;;;5050183;28;20747;-60
2023/01/09 12:35:12;;;;;;;2.85;2.00;;;;;;;;;;5042392;28;20517;-59
2023/01/09 12:37:38;;;;;;;2.57;2.20;;;;;;;;;;5032874;28;20541;-59
2023/01/09 12:40:11;;;;;;;2.50;1.43;;;;;;;;;;5040745;28;20305;-60
2023/01/09 12:42:53;;;;;;;2.50;2.07;;;;;;;;;;5042810;28;20274;-60
2023/01/09 12:45:38;;;;;;;1.20;1.10;;;;;;;;;;5038631;28;20270;-60
2023/01/09 12:48:23;;;;;;;4.43;2.83;;;;;;;;;;5032743;28;20243;-59
2023/01/09 12:51:04;;;;;;;1.25;1.15;;;;;;;;;;5033851;28;20022;-59
2023/01/09 12:53:38;;;;;;;1.60;1.33;;;;;;;;;;5032601;28;20052;-59
2023/01/09 12:56:05;;;;;;;1.88;1.42;;;;;;;;;;5034570;28;20269;-59
2023/01/09 12:58:51;;;;;;;3.30;1.77;;;;;;;;;;5048441;28;20111;-59
2023/01/09 13:01:22;;;;;;;3.83;2.53;;;;;;;;;;5048195;28;20289;-60
2023/01/09 13:03:48;;;;;;;7.63;2.50;;;;;;;;;;5049823;28;20262;-59
2023/01/09 13:06:17;;;;;;;1.87;1.20;;;;;;;;;;5046102;28;20273;-59
2023/01/09 13:08:56;;;;;;;1.87;1.57;;;;;;;;;;5033827;28;20645;-59
2023/01/09 13:11:34;;;;;;;6.73;2.53;;;;;;;;;;5033589;28;20291;-59
2023/01/09 13:14:11;;;;;;;2.37;2.17;;;;;;;;;;5033323;28;20334;-60
2023/01/09 13:16:43;;;;;;;1.37;0.93;;;;;;;;;;5040007;28;20276;-59
2023/01/09 13:19:19;;;;;;;2.30;1.80;;;;;;;;;;5047793;28;20337;-59
2023/01/09 13:21:46;;;;;;;1.67;1.43;;;;;;;;;;5047767;28;20824;-60
2023/01/09 13:24:13;;;;;;;2.77;2.00;;;;;;;;;;5046205;28;20273;-59
2023/01/09 13:26:42;;;;;;;2.53;1.73;;;;;;;;;;5039435;28;20353;-59
2023/01/09 13:29:19;;;;;;;1.63;1.43;;;;;;;;;;5033788;28;20664;-60
2023/01/09 13:31:46;;;;;;;3.40;2.47;;;;;;;;;;5033352;28;20345;-59
2023/01/09 13:34:18;;;;;;;4.73;2.53;;;;;;;;;;5035318;28;20267;-60
2023/01/09 13:36:49;;;;;;;1.53;1.03;;;;;;;;;;5039769;28;20312;-60
2023/01/09 13:39:24;;;;;;;2.17;1.90;;;;;;;;;;5042753;28;20270;-60
2023/01/09 13:44:37;;;;;;;2.07;1.73;;;;;;;;;;5058629;28;20114;-60
2023/01/09 13:47:04;;;;;;;2.83;2.33;;;;;;;;;;5063419;28;20290;-60
2023/01/09 13:49:43;;;;;;;2.10;1.90;;;;;;;;;;5041240;28;20266;-60
2023/01/09 13:52:28;;;;;;;4.20;2.77;;;;;;;;;;5060466;28;20340;-61
2023/01/09 13:54:55;;;;;;;2.58;1.77;;;;;;;;;;5057369;28;20256;-60
2023/01/09 13:57:21;;;;;;;6.60;4.47;;;;;;;;;;5058008;28;20025;-60
2023/01/09 13:59:48;;;;;;;26.87;3.63;;;;;;;;;;5061263;28;20258;-60
2023/01/09 14:02:43;;;;;;;5.87;2.80;;;;;;;;;;5063025;28;20268;-60
2023/01/09 14:05:14;;;;;;;40.37;4.30;;;;;;;;;;5048313;28;20308;-61
2023/01/09 14:07:47;;;;;;;6.83;3.63;;;;;;;;;;5057976;28;20320;-60
2023/01/09 14:10:20;;;;;;;4.87;2.27;;;;;;;;;;5054703;28;20327;-60
2023/01/09 14:12:47;;;;;;;6.73;2.50;;;;;;;;;;5054802;28;20285;-61
2023/01/09 14:15:26;;;;;;;3.73;2.17;;;;;;;;;;5065019;28;20613;-60
2023/01/09 14:18:16;;;;;;;13.73;3.53;;;;;;;;;;5056976;28;20249;-61
2023/01/09 14:20:52;;;;;;;3.07;2.53;;;;;;;;;;5053509;28;20297;-61
2023/01/09 14:23:22;;;;;;;7.87;3.03;;;;;;;;;;5056466;28;20266;-61
2023/01/09 14:25:50;;;;;;;11.73;2.83;;;;;;;;;;5056163;28;20256;-61
2023/01/09 14:28:21;;;;;;;6.73;3.07;;;;;;;;;;5063048;28;20021;-61
2023/01/09 14:30:53;;;;;;;4.87;2.53;;;;;;;;;;5047818;28;20036;-61
2023/01/09 14:33:26;;;;;;;2.60;1.70;;;;;;;;;;5056372;28;20044;-61
2023/01/09 14:35:59;;;;;;;4.40;2.90;;;;;;;;;;5057551;28;20356;-61
2023/01/09 14:38:34;;;;;;;6.30;2.53;;;;;;;;;;5056574;28;20489;-61
2023/01/09 14:41:04;;;;;;;4.63;2.77;;;;;;;;;;5038223;28;20051;-61
2023/01/09 14:43:51;;;;;;;2.40;1.83;;;;;;;;;;5054052;28;20025;-61
2023/01/09 14:46:19;;;;;;;4.03;2.87;;;;;;;;;;5045556;28;20076;-61
2023/01/09 14:48:57;;;;;;;4.50;3.13;;;;;;;;;;5067580;28;20044;-61
2023/01/09 14:51:24;;;;;;;3.90;2.80;;;;;;;;;;5058958;28;20025;-61
2023/01/09 14:53:52;;;;;;;3.50;2.87;;;;;;;;;;5059562;28;20029;-61
2023/01/09 14:56:25;;;;;;;14.20;4.07;;;;;;;;;;5062046;28;20029;-61
2023/01/09 14:59:02;;;;;;;7.57;3.30;;;;;;;;;;5073171;28;20433;-61
2023/01/09 15:01:31;;;;;;;6.17;3.53;;;;;;;;;;5064636;28;20082;-61
2023/01/09 15:04:00;;;;;;;7.37;4.23;;;;;;;;;;5064160;28;20021;-61
2023/01/09 15:06:32;;;;;;;5.80;4.27;;;;;;;;;;5058446;28;20025;-62
2023/01/09 15:09:01;;;;;;;4.20;2.57;;;;;;;;;;5067055;28;20017;-61
2023/01/09 15:11:29;;;;;;;4.30;3.27;;;;;;;;;;5059846;28;20706;-61
2023/01/09 15:13:57;;;;;;;3.70;3.00;;;;;;;;;;5058419;28;20032;-61
2023/01/09 15:16:25;;;;;;;2.17;1.87;;;;;;;;;;5051762;28;20040;-61